createdAt,value
2023-05-02T00:02:15.085Z,9.14
2023-05-02T00:26:34.536Z,8.99
2023-05-02T00:29:21.388Z,8.94
2023-05-02T00:37:04.828Z,8.87
2023-05-02T00:40:08.305Z,8.83
2023-05-02T00:42:55.291Z,8.77
2023-05-02T00:45:49.189Z,8.75
2023-05-02T00:48:37.822Z,8.72
2023-05-02T00:51:24.927Z,8.69
2023-05-02T00:54:13.681Z,8.66
2023-05-02T00:57:00.573Z,8.63
2023-05-02T00:59:47.576Z,8.61
2023-05-02T01:02:58.752Z,8.56
2023-05-02T01:06:00.005Z,8.55
2023-05-02T01:09:00.910Z,8.54
2023-05-02T01:12:11.186Z,8.53
2023-05-02T01:14:59.780Z,8.58
2023-05-02T01:17:49.723Z,8.61
2023-05-02T01:20:41.312Z,8.64
2023-05-02T01:24:05.727Z,8.66
2023-05-02T01:27:36.698Z,8.66
2023-05-02T01:30:28.765Z,8.67
2023-05-02T01:33:18.511Z,8.66
2023-05-02T01:36:07.647Z,8.63
2023-05-02T01:38:57.103Z,8.54
2023-05-02T01:41:45.247Z,8.48
2023-05-02T01:44:34.443Z,8.44
2023-05-02T01:47:24.443Z,8.41
2023-05-02T01:50:16.983Z,8.35
2023-05-02T01:53:05.134Z,8.33
2023-05-02T01:55:54.204Z,8.30
2023-05-02T01:58:42.176Z,8.27
2023-05-02T02:01:31.372Z,8.24
2023-05-02T02:04:22.321Z,8.20
2023-05-02T02:07:13.146Z,8.17
2023-05-02T02:10:00.888Z,8.13
2023-05-02T02:13:26.261Z,8.11
2023-05-02T02:16:19.554Z,8.16
2023-05-02T02:19:13.295Z,8.22
2023-05-02T02:22:01.115Z,8.22
2023-05-02T02:24:48.682Z,8.22
2023-05-02T02:27:37.481Z,8.18
2023-05-02T02:30:24.393Z,8.13
2023-05-02T02:33:10.999Z,8.11
2023-05-02T02:36:25.125Z,8.08
2023-05-02T02:39:31.236Z,8.08
2023-05-02T02:42:40.226Z,8.13
2023-05-02T02:45:41.006Z,8.11
2023-05-02T02:49:15.605Z,8.11
2023-05-02T02:52:05.338Z,8.09
2023-05-02T02:54:59.748Z,8.11
2023-05-02T02:58:02.629Z,8.17
2023-05-02T03:00:50.521Z,8.22
2023-05-02T03:03:40.029Z,8.27
2023-05-02T03:06:27.565Z,8.29
2023-05-02T03:09:18.811Z,8.30
2023-05-02T03:12:06.370Z,8.33
2023-05-02T03:15:02.959Z,8.35
2023-05-02T03:17:50.037Z,8.42
2023-05-02T03:20:36.921Z,8.48
2023-05-02T03:23:24.999Z,8.52
2023-05-02T03:26:11.929Z,8.53
2023-05-02T03:29:00.301Z,8.55
2023-05-02T03:31:51.176Z,8.59
2023-05-02T03:34:39.028Z,8.61
2023-05-02T03:37:26.036Z,8.64
2023-05-02T03:40:16.110Z,8.68
2023-05-02T03:43:04.334Z,8.74
2023-05-02T03:45:51.936Z,8.84
2023-05-02T03:48:39.518Z,8.93
2023-05-02T03:51:27.069Z,9.03
2023-05-02T03:54:14.589Z,9.17
2023-05-02T03:57:04.897Z,9.29
2023-05-02T03:59:52.428Z,9.41
2023-05-02T04:02:43.808Z,9.53
2023-05-02T04:05:33.831Z,9.62
2023-05-02T04:08:21.440Z,9.72
2023-05-02T04:11:08.769Z,9.84
2023-05-02T04:13:55.728Z,9.97
2023-05-02T04:16:48.468Z,10.12
2023-05-02T04:19:36.037Z,10.25
2023-05-02T04:22:23.430Z,10.39
2023-05-02T04:25:14.214Z,10.53
2023-05-02T04:28:03.759Z,10.66
2023-05-02T04:30:51.142Z,10.79
2023-05-02T04:33:43.380Z,10.91
2023-05-02T04:36:31.960Z,11.05
2023-05-02T04:39:18.966Z,11.17
2023-05-02T04:42:15.351Z,11.32
2023-05-02T04:45:10.294Z,11.45
2023-05-02T04:47:57.831Z,11.57
2023-05-02T04:50:46.414Z,11.70
2023-05-02T04:53:33.655Z,11.83
2023-05-02T04:56:22.877Z,11.96
2023-05-02T04:59:12.210Z,12.09
2023-05-02T05:01:59.748Z,12.22
2023-05-02T05:04:48.381Z,12.35
2023-05-02T05:07:38.293Z,12.49
2023-05-02T05:10:26.052Z,12.62
2023-05-02T05:13:14.048Z,12.77
2023-05-02T05:16:10.679Z,12.95
2023-05-02T05:19:16.291Z,13.14
2023-05-02T05:22:03.327Z,13.30
2023-05-02T05:24:57.479Z,13.46
2023-05-02T05:27:52.993Z,13.60
2023-05-02T05:30:46.090Z,13.72
2023-05-02T05:33:39.398Z,13.85
2023-05-02T05:36:31.782Z,13.97
2023-05-02T05:39:18.570Z,14.09
2023-05-02T05:42:10.256Z,14.20
2023-05-02T05:50:18.546Z,14.53
2023-05-02T05:53:06.662Z,14.64
2023-05-02T05:55:55.017Z,14.74
2023-05-02T05:58:45.392Z,14.86
2023-05-02T06:01:34.472Z,14.97
2023-05-02T06:04:23.038Z,15.09
2023-05-02T06:07:13.749Z,15.22
2023-05-02T06:10:01.094Z,15.34
2023-05-02T06:12:49.744Z,15.49
2023-05-02T06:15:38.581Z,15.62
2023-05-02T06:18:26.596Z,15.77
2023-05-02T06:21:14.586Z,15.89
2023-05-02T06:24:01.649Z,16.00
2023-05-02T06:26:48.713Z,16.09
2023-05-02T06:29:35.836Z,16.15
2023-05-02T06:32:22.896Z,16.25
2023-05-02T06:35:12.267Z,16.32
2023-05-02T06:37:58.932Z,16.41
2023-05-02T06:40:45.652Z,16.43
2023-05-02T06:43:33.985Z,16.45
2023-05-02T06:46:21.240Z,16.49
2023-05-02T06:49:09.736Z,16.57
2023-05-02T06:51:56.799Z,16.67
2023-05-02T06:54:44.850Z,16.74
2023-05-02T06:57:31.653Z,16.82
2023-05-02T07:00:22.967Z,16.91
2023-05-02T07:03:11.471Z,16.96
2023-05-02T07:05:58.767Z,17.01
2023-05-02T07:08:46.169Z,17.09
2023-05-02T07:11:33.968Z,17.16
2023-05-02T07:14:22.339Z,17.25
2023-05-02T07:17:10.038Z,17.34
2023-05-02T07:19:56.757Z,17.43
2023-05-02T07:22:46.374Z,17.55
2023-05-02T07:25:33.786Z,17.62
2023-05-02T07:28:20.684Z,17.66
2023-05-02T07:31:07.916Z,17.72
2023-05-02T07:33:54.592Z,17.83
2023-05-02T07:36:41.491Z,17.92
2023-05-02T07:39:28.222Z,18.03
2023-05-02T07:42:15.384Z,18.15
2023-05-02T07:45:02.638Z,18.26
2023-05-02T07:47:49.598Z,18.33
2023-05-02T07:50:39.839Z,18.43
2023-05-02T07:53:26.792Z,18.50
2023-05-02T07:56:15.328Z,18.47
2023-05-02T07:59:03.638Z,18.48
2023-05-02T08:01:52.027Z,18.46
2023-05-02T08:04:41.137Z,18.46
2023-05-02T08:07:37.618Z,18.51
2023-05-02T08:10:24.516Z,18.48
2023-05-02T08:13:12.538Z,18.53
2023-05-02T08:16:02.115Z,18.61
2023-05-02T08:18:49.223Z,18.73
2023-05-02T08:21:38.611Z,18.84
2023-05-02T08:24:26.934Z,18.88
2023-05-02T08:27:16.141Z,18.93
2023-05-02T08:30:04.911Z,18.96
2023-05-02T08:32:51.937Z,18.91
2023-05-02T08:35:38.763Z,18.86
2023-05-02T08:38:25.447Z,18.95
2023-05-02T08:41:19.451Z,19.06
2023-05-02T08:44:15.476Z,19.19
2023-05-02T08:47:04.411Z,19.28
2023-05-02T08:49:56.765Z,19.37
2023-05-02T08:52:47.112Z,19.45
2023-05-02T08:55:39.863Z,19.49
2023-05-02T08:58:26.984Z,19.51
2023-05-02T09:01:17.390Z,19.57
2023-05-02T09:04:05.119Z,19.61
2023-05-02T09:06:53.213Z,19.63
2023-05-02T09:09:40.314Z,19.68
2023-05-02T09:15:59.347Z,19.78
2023-05-02T09:18:51.757Z,19.80
2023-05-02T09:29:41.029Z,19.96
2023-05-02T09:32:52.112Z,20.02
2023-05-02T09:36:37.848Z,20.03
2023-05-02T09:40:09.534Z,20.12
2023-05-02T09:42:57.926Z,20.23
2023-05-02T09:46:03.621Z,20.20
2023-05-02T09:49:27.643Z,20.22
2023-05-02T09:52:36.334Z,20.29
2023-05-02T09:55:23.266Z,20.38
2023-05-02T09:58:24.287Z,20.42
2023-05-02T10:01:21.764Z,20.45
2023-05-02T10:04:18.987Z,20.50
2023-05-02T10:07:06.850Z,20.49
2023-05-02T10:09:58.657Z,20.47
2023-05-02T10:12:52.924Z,20.51
2023-05-02T10:19:45.507Z,20.65
2023-05-02T10:22:39.288Z,20.68
2023-05-02T10:25:26.305Z,20.69
2023-05-02T10:28:14.572Z,20.74
2023-05-02T10:31:03.285Z,20.77
2023-05-02T10:38:43.767Z,20.81
2023-05-02T10:45:36.950Z,20.86
2023-05-02T10:48:42.231Z,20.85
2023-05-02T10:51:44.432Z,20.90
2023-05-02T10:54:31.085Z,20.97
2023-05-02T10:57:18.119Z,21.01
2023-05-02T11:04:06.681Z,20.94
2023-05-02T11:06:59.634Z,20.99
2023-05-02T11:09:51.198Z,21.06
2023-05-02T11:12:49.386Z,21.05
2023-05-02T11:15:42.813Z,21.08
2023-05-02T11:18:59.555Z,21.10
2023-05-02T11:21:51.370Z,21.13
2023-05-02T11:24:44.972Z,21.13
2023-05-02T11:27:38.589Z,20.99
2023-05-02T11:30:40.170Z,21.00
2023-05-02T11:33:28.992Z,20.98
2023-05-02T11:36:32.622Z,20.96
2023-05-02T11:39:21.322Z,20.94
2023-05-02T11:42:08.305Z,20.94
2023-05-02T11:44:59.726Z,21.07
2023-05-02T11:47:49.041Z,21.15
2023-05-02T11:51:03.556Z,21.20
2023-05-02T11:53:53.268Z,21.26
2023-05-02T11:56:40.837Z,21.22
2023-05-02T11:59:28.185Z,21.16
2023-05-02T12:02:16.575Z,21.15
2023-05-02T12:05:06.343Z,21.19
2023-05-02T12:07:53.752Z,21.38
2023-05-02T12:10:40.809Z,21.60
2023-05-02T12:13:31.750Z,21.80
2023-05-02T12:16:20.360Z,22.01
2023-05-02T12:19:07.782Z,22.16
2023-05-02T12:21:55.649Z,22.47
2023-05-02T12:24:43.722Z,22.65
2023-05-02T12:27:30.480Z,22.78
2023-05-02T12:30:28.556Z,23.02
2023-05-02T12:33:17.439Z,23.24
2023-05-02T12:36:08.459Z,23.56
2023-05-02T12:38:59.939Z,23.83
2023-05-02T12:41:48.490Z,24.02
2023-05-02T12:44:43.301Z,24.29
2023-05-02T12:47:30.158Z,24.46
2023-05-02T12:50:17.051Z,24.46
2023-05-02T12:53:04.063Z,24.49
2023-05-02T12:56:02.748Z,24.68
2023-05-02T12:58:49.529Z,24.88
2023-05-02T13:01:36.413Z,25.04
2023-05-02T13:04:41.411Z,25.03
2023-05-02T13:07:28.945Z,25.03
2023-05-02T13:10:18.262Z,25.18
2023-05-02T13:13:05.706Z,25.29
2023-05-02T13:15:52.611Z,25.50
2023-05-02T13:18:39.793Z,25.60
2023-05-02T13:21:27.099Z,25.76
2023-05-02T13:24:15.011Z,26.03
2023-05-02T13:27:02.239Z,26.27
2023-05-02T13:29:52.889Z,26.50
2023-05-02T13:32:42.719Z,26.59
2023-05-02T13:35:29.501Z,26.60
2023-05-02T13:38:16.364Z,26.57
2023-05-02T13:41:03.195Z,26.64
2023-05-02T13:43:51.091Z,26.97
2023-05-02T13:46:39.520Z,26.89
2023-05-02T13:49:26.831Z,27.05
2023-05-02T13:52:13.651Z,27.07
2023-05-02T13:55:00.478Z,27.26
2023-05-02T13:57:47.698Z,27.37
2023-05-02T14:00:34.722Z,27.58
2023-05-02T14:03:22.530Z,27.64
2023-05-02T14:06:09.484Z,27.61
2023-05-02T14:08:56.370Z,27.66
2023-05-02T14:11:44.498Z,27.44
2023-05-02T14:14:31.709Z,27.51
2023-05-02T14:17:18.470Z,27.77
2023-05-02T14:20:07.255Z,27.80
2023-05-02T14:22:56.682Z,27.73
2023-05-02T14:25:43.669Z,27.92
2023-05-02T14:28:32.382Z,28.27
2023-05-02T14:31:20.723Z,28.52
2023-05-02T14:34:09.067Z,28.57
2023-05-02T14:36:56.166Z,28.46
2023-05-02T14:39:47.448Z,28.58
2023-05-02T14:42:35.280Z,28.55
2023-05-02T14:45:22.408Z,28.41
2023-05-02T14:48:10.977Z,28.38
2023-05-02T14:51:01.525Z,28.64
2023-05-02T14:53:49.219Z,28.69
2023-05-02T14:56:36.244Z,28.74
2023-05-02T14:59:23.371Z,28.69
2023-05-02T15:02:11.307Z,28.74
2023-05-02T15:04:58.270Z,28.90
2023-05-02T15:07:45.095Z,29.28
2023-05-02T15:10:34.640Z,29.33
2023-05-02T15:13:22.017Z,29.02
2023-05-02T15:16:10.841Z,28.96
2023-05-02T15:18:57.747Z,28.94
2023-05-02T15:21:46.006Z,28.93
2023-05-02T15:24:34.199Z,28.75
2023-05-02T15:27:28.429Z,27.89
2023-05-02T15:30:17.853Z,26.59
2023-05-02T15:33:05.721Z,25.65
2023-05-02T15:35:58.645Z,25.03
2023-05-02T15:38:45.611Z,24.39
2023-05-02T15:41:32.734Z,23.77
2023-05-02T15:44:19.613Z,23.28
2023-05-02T15:47:06.624Z,22.78
2023-05-02T15:49:55.110Z,22.23
2023-05-02T15:52:42.078Z,21.92
2023-05-02T15:55:30.731Z,21.56
2023-05-02T15:58:19.862Z,21.25
2023-05-02T16:01:08.651Z,20.85
2023-05-02T16:03:56.437Z,20.51
2023-05-02T16:06:43.375Z,20.30
2023-05-02T16:09:31.324Z,20.15
2023-05-02T16:12:18.704Z,19.91
2023-05-02T16:15:06.459Z,19.69
2023-05-02T16:17:53.319Z,19.52
2023-05-02T16:20:52.368Z,19.22
2023-05-02T16:23:39.252Z,19.03
2023-05-02T16:29:13.214Z,18.57
2023-05-02T16:32:00.405Z,18.46
2023-05-02T16:34:47.385Z,18.33
2023-05-02T16:37:35.937Z,18.20
2023-05-02T16:40:22.846Z,18.02
2023-05-02T16:43:09.808Z,17.90
2023-05-02T16:46:04.353Z,17.71
2023-05-02T16:48:51.216Z,17.49
2023-05-02T16:51:39.591Z,17.30
2023-05-02T16:54:26.776Z,17.08
2023-05-02T16:57:18.481Z,16.84
2023-05-02T17:00:08.302Z,16.66
2023-05-02T17:02:57.141Z,16.42
2023-05-02T17:05:43.919Z,16.20
2023-05-02T17:08:30.767Z,16.01
2023-05-02T17:11:18.427Z,15.82
2023-05-02T17:14:05.590Z,15.71
2023-05-02T17:16:52.724Z,15.50
2023-05-02T17:19:39.696Z,15.34
2023-05-02T17:22:27.168Z,15.23
2023-05-02T17:25:14.557Z,15.10
2023-05-02T17:28:01.948Z,15.00
2023-05-02T17:30:48.896Z,14.86
2023-05-02T17:33:36.140Z,14.76
2023-05-02T17:36:25.651Z,14.64
2023-05-02T17:39:13.831Z,14.56
2023-05-02T17:42:01.272Z,14.49
2023-05-02T17:44:49.671Z,14.47
2023-05-02T17:47:37.245Z,14.42
2023-05-02T17:50:24.321Z,14.32
2023-05-02T17:53:11.495Z,14.25
2023-05-02T17:55:58.350Z,14.15
2023-05-02T17:58:47.312Z,14.05
2023-05-02T18:01:33.808Z,13.90
2023-05-02T18:04:20.654Z,13.82
2023-05-02T18:07:08.283Z,13.63
2023-05-02T18:09:55.602Z,13.47
2023-05-02T18:12:42.668Z,13.28
2023-05-02T18:15:31.084Z,13.03
2023-05-02T18:18:18.714Z,12.83
2023-05-02T18:21:06.325Z,12.64
2023-05-02T18:23:53.253Z,12.42
2023-05-02T18:26:40.481Z,12.30
2023-05-02T18:29:27.039Z,12.23
2023-05-02T18:32:16.851Z,12.13
2023-05-02T18:35:10.957Z,12.07
2023-05-02T18:37:57.949Z,11.99
2023-05-02T18:40:44.718Z,11.94
2023-05-02T18:43:33.632Z,11.91
2023-05-02T18:46:20.128Z,11.89
2023-05-02T18:49:09.376Z,11.89
2023-05-02T18:51:56.722Z,11.89
2023-05-02T18:54:43.425Z,11.89
2023-05-02T18:57:30.057Z,11.90
2023-05-02T19:03:30.824Z,11.75
2023-05-02T19:06:18.893Z,11.73
2023-05-02T19:09:05.924Z,11.73
2023-05-02T19:11:55.115Z,11.70
2023-05-02T19:14:42.182Z,11.65
2023-05-02T19:20:40.228Z,11.42
2023-05-02T19:23:27.033Z,11.36
2023-05-02T19:26:15.539Z,11.32
2023-05-02T19:29:03.223Z,11.29
2023-05-02T19:31:50.209Z,11.25
2023-05-02T19:34:37.318Z,11.22
2023-05-02T19:37:25.461Z,11.17
2023-05-02T19:40:13.165Z,11.08
2023-05-02T19:43:00.050Z,11.02
2023-05-02T19:45:46.704Z,10.95
2023-05-02T19:48:33.367Z,10.87
2023-05-02T19:51:33.976Z,10.84
2023-05-02T19:54:23.226Z,10.85
2023-05-02T19:57:10.060Z,10.95
2023-05-02T19:59:56.900Z,10.97
2023-05-02T20:02:44.655Z,10.96
2023-05-02T20:05:32.742Z,10.97
2023-05-02T20:08:21.458Z,10.97
2023-05-02T20:11:09.035Z,10.95
2023-05-02T20:13:55.972Z,10.96
2023-05-02T20:16:42.678Z,10.94
2023-05-02T20:19:32.275Z,10.91
2023-05-02T20:22:19.285Z,10.87
2023-05-02T20:25:09.924Z,10.79
2023-05-02T20:27:56.453Z,10.72
2023-05-02T20:30:44.273Z,10.69
2023-05-02T20:33:43.696Z,10.67
2023-05-02T20:36:32.520Z,10.67
2023-05-02T20:39:23.773Z,10.55
2023-05-02T20:42:11.616Z,10.30
2023-05-02T20:45:00.049Z,10.16
2023-05-02T20:47:47.388Z,10.05
2023-05-02T20:50:34.777Z,9.94
2023-05-02T20:53:23.947Z,9.87
2023-05-02T20:56:10.802Z,9.81
2023-05-02T20:58:57.270Z,9.80
2023-05-02T21:01:44.000Z,9.73
2023-05-02T21:04:31.223Z,9.64
2023-05-02T21:07:18.319Z,9.59
2023-05-02T21:10:08.103Z,9.63
2023-05-02T21:12:55.027Z,9.64
2023-05-02T21:15:42.183Z,9.47
2023-05-02T21:18:28.729Z,9.47
2023-05-02T21:21:16.731Z,9.44
2023-05-02T21:24:06.654Z,9.38
2023-05-02T21:26:53.820Z,9.38
2023-05-02T21:29:40.789Z,9.45
2023-05-02T21:32:27.868Z,9.44
2023-05-02T21:35:14.790Z,9.45
2023-05-02T21:38:02.580Z,9.43
2023-05-02T21:40:49.694Z,9.39
2023-05-02T21:43:39.838Z,9.41
2023-05-02T21:46:26.781Z,9.41
2023-05-02T21:49:14.056Z,9.41
2023-05-02T21:52:01.169Z,9.41
2023-05-02T21:54:50.172Z,9.41
2023-05-02T21:57:37.084Z,9.42
2023-05-02T22:00:24.431Z,9.44
2023-05-02T22:03:13.749Z,9.43
2023-05-02T22:06:06.402Z,9.39
2023-05-02T22:08:53.867Z,9.37
2023-05-02T22:11:40.921Z,9.34
2023-05-02T22:14:37.571Z,9.34
2023-05-02T22:17:32.905Z,9.36
2023-05-02T22:20:20.018Z,9.43
2023-05-02T22:23:07.449Z,9.50
2023-05-02T22:25:54.388Z,9.50
2023-05-02T22:28:41.316Z,9.47
2023-05-02T22:31:28.743Z,9.43
2023-05-02T22:34:15.800Z,9.41
2023-05-02T22:37:02.760Z,9.43
2023-05-02T22:39:49.830Z,9.43
2023-05-02T22:42:36.653Z,9.38
2023-05-02T22:45:23.809Z,9.27
2023-05-02T22:48:10.827Z,9.18
2023-05-02T22:50:57.947Z,9.09
2023-05-02T22:53:44.511Z,9.04
2023-05-02T22:56:31.591Z,9.11
2023-05-02T22:59:18.676Z,9.19
2023-05-02T23:02:05.482Z,9.18
2023-05-02T23:04:52.510Z,9.12
2023-05-02T23:07:39.356Z,9.07
2023-05-02T23:10:26.390Z,9.03
2023-05-02T23:13:13.334Z,8.95
2023-05-02T23:16:00.458Z,8.82
2023-05-02T23:18:47.665Z,8.73
2023-05-02T23:21:34.673Z,8.67
2023-05-02T23:24:21.793Z,8.63
2023-05-02T23:27:09.888Z,8.62
2023-05-02T23:29:56.464Z,8.61
2023-05-02T23:32:43.287Z,8.52
2023-05-02T23:35:32.088Z,8.43
2023-05-02T23:38:19.009Z,8.36
2023-05-02T23:41:05.969Z,8.35
2023-05-02T23:43:52.741Z,8.35
2023-05-02T23:46:39.244Z,8.32
2023-05-02T23:49:28.092Z,8.24
2023-05-02T23:52:15.240Z,8.18
2023-05-02T23:55:02.576Z,8.15
2023-05-02T23:57:49.391Z,8.11
